Time;durP1;ratioP1;P1;durP2;ratioP2;P2;SDS_P1;SDS_P2;PMS_P1;PMS_P2;Temp;Humidity;BMP_temperature;BMP_pressure;BME280_temperature;BME280_humidity;BME280_pressure;Samples;Min_cycle;Max_cycle;Signal;HPM_P1;HPM_P2
2021/12/12 00:03:15;;;;;;;6.53;3.20;;;;;;;21.69;48.18;100318.91;3955129;32;15725141;-68
2021/12/12 00:05:46;;;;;;;7.82;3.40;;;;;;;21.69;48.18;100318.91;4432774;32;20098;-68
2021/12/12 00:08:16;;;;;;;7.22;3.25;;;;;;;21.48;48.37;100306.19;4429252;32;20406;-68
2021/12/12 00:10:44;;;;;;;8.88;3.87;;;;;;;21.34;48.71;100315.88;4429411;32;20049;-68
2021/12/12 00:13:16;;;;;;;6.05;3.50;;;;;;;21.14;49.34;100315.37;4431585;32;20374;-68
2021/12/12 00:15:42;;;;;;;6.15;3.25;;;;;;;21.05;49.66;100307.81;4429271;32;20045;-68
2021/12/12 00:18:09;;;;;;;6.53;3.17;;;;;;;20.85;49.76;100316.66;4432898;32;20750;-68
2021/12/12 00:20:36;;;;;;;5.07;3.10;;;;;;;21.01;49.73;100318.75;4431797;32;20113;-68
2021/12/12 00:23:03;;;;;;;7.40;2.95;;;;;;;20.91;50.00;100310.94;4435209;32;20042;-68
2021/12/12 00:25:38;;;;;;;9.98;3.55;;;;;;;21.02;49.64;100328.91;4434438;32;20418;-68
2021/12/12 00:28:05;;;;;;;8.25;3.35;;;;;;;21.24;48.91;100325.25;4431241;32;20115;-68
2021/12/12 00:30:32;;;;;;;4.90;2.70;;;;;;;21.32;48.96;100323.41;4432020;32;20072;-69
2021/12/12 00:32:57;;;;;;;8.07;3.37;;;;;;;21.16;49.05;100318.47;4432803;32;20081;-69
2021/12/12 00:35:24;;;;;;;6.40;3.30;;;;;;;21.27;48.63;100312.75;4418903;32;20099;-68
2021/12/12 00:38:03;;;;;;;5.93;2.70;;;;;;;21.49;48.40;100307.78;4431449;32;20580;-68
2021/12/12 00:40:36;;;;;;;6.65;2.80;;;;;;;21.54;48.38;100315.56;4432249;32;20041;-68
2021/12/12 00:43:07;;;;;;;5.78;2.97;;;;;;;21.50;48.39;100312.19;4433660;32;20056;-68
2021/12/12 00:45:33;;;;;;;4.85;2.90;;;;;;;21.37;48.84;100309.09;4432417;32;20073;-69
2021/12/12 00:47:59;;;;;;;6.07;2.55;;;;;;;21.30;48.88;100312.47;4433946;32;20033;-69
2021/12/12 00:50:32;;;;;;;5.20;2.92;;;;;;;21.33;48.24;100314.28;4429945;32;20073;-69
2021/12/12 00:53:00;;;;;;;3.78;2.80;;;;;;;21.50;48.48;100317.12;4432815;32;20407;-68
2021/12/12 00:55:26;;;;;;;4.25;2.30;;;;;;;21.05;49.35;100307.81;4431442;32;20405;-69
2021/12/12 00:57:53;;;;;;;4.75;2.87;;;;;;;20.69;50.07;100308.06;4430481;32;20038;-68
2021/12/12 01:00:25;;;;;;;6.10;3.00;;;;;;;20.40;50.94;100325.72;4428305;32;20118;-69
2021/12/12 01:02:53;;;;;;;4.53;3.35;;;;;;;20.55;50.57;100318.44;4432174;32;20172;-69
2021/12/12 01:05:20;;;;;;;3.75;2.70;;;;;;;20.44;51.14;100318.44;4429425;32;20113;-69
2021/12/12 01:07:47;;;;;;;7.05;2.83;;;;;;;20.06;52.23;100326.88;4428159;32;20041;-69
2021/12/12 01:12:58;;;;;;;4.60;2.80;;;;;;;20.33;51.89;100329.03;3984646;32;15022616;-69
2021/12/12 01:18:03;;;;;;;3.60;2.85;;;;;;;20.16;53.10;100336.81;3984033;32;15021205;-68
2021/12/12 01:20:40;;;;;;;5.78;2.67;;;;;;;20.16;53.10;100336.81;4433358;32;20510;-68
2021/12/12 01:23:14;;;;;;;5.50;2.58;;;;;;;19.91;52.85;100329.91;4437753;32;20017;-68
2021/12/12 01:25:44;;;;;;;6.47;2.87;;;;;;;19.93;52.79;100335.09;4436451;32;20026;-69
2021/12/12 01:28:14;;;;;;;2.60;2.30;;;;;;;19.83;52.80;100323.12;4432795;32;20377;-69
2021/12/12 01:30:40;;;;;;;3.40;2.22;;;;;;;20.04;52.74;100338.81;4434680;32;20090;-68
2021/12/12 01:33:09;;;;;;;3.47;1.90;;;;;;;19.75;53.29;100344.88;4437426;32;20013;-69
2021/12/12 01:35:38;;;;;;;3.75;2.20;;;;;;;20.00;52.62;100349.69;4436419;32;20435;-69
2021/12/12 01:40:56;;;;;;;4.18;2.35;;;;;;;19.46;54.33;100345.25;4434573;32;20038;-69
2021/12/12 01:43:27;;;;;;;6.87;2.20;;;;;;;20.03;52.94;100357.22;4436015;32;20096;-69
2021/12/12 01:46:00;;;;;;;2.87;1.77;;;;;;;19.93;52.80;100353.03;4434985;32;20507;-69
2021/12/12 01:48:34;;;;;;;5.20;2.15;;;;;;;19.83;53.33;100350.91;4437111;32;20049;-69
2021/12/12 01:51:03;;;;;;;4.05;1.90;;;;;;;20.09;52.36;100357.28;4433888;32;20073;-71
2021/12/12 01:53:36;;;;;;;2.58;1.50;;;;;;;20.22;52.22;100354.75;4436171;32;20072;-70
2021/12/12 01:58:42;;;;;;;2.22;1.45;;;;;;;20.62;51.47;100351.47;3953376;32;15723609;-69
2021/12/12 02:03:51;;;;;;;2.35;1.27;;;;;;;20.77;50.77;100366.31;3980653;32;15028066;-69
2021/12/12 02:06:20;;;;;;;6.85;1.50;;;;;;;20.77;50.77;100366.31;4436598;32;20096;-69
2021/12/12 02:08:48;;;;;;;2.65;1.27;;;;;;;20.52;51.16;100368.06;4437732;32;20446;-69
2021/12/12 02:11:20;;;;;;;4.47;1.08;;;;;;;20.49;51.14;100365.50;4438092;32;20041;-69
2021/12/12 02:13:51;;;;;;;1.23;0.60;;;;;;;20.41;51.29;100378.72;4436099;32;20103;-69
2021/12/12 02:16:19;;;;;;;1.50;0.90;;;;;;;20.57;50.91;100383.69;4433602;32;20107;-69
2021/12/12 02:18:52;;;;;;;1.27;0.80;;;;;;;20.55;50.83;100383.41;4436103;32;20085;-69
2021/12/12 02:21:27;;;;;;;2.47;0.80;;;;;;;20.42;50.84;100381.06;4437941;32;20056;-69
2021/12/12 02:35:04;;;;;;;3.15;0.80;;;;;;;20.70;50.49;100384.75;4437516;32;20041;-69
2021/12/12 02:35:24;;;;;;;1.27;0.80;;;;;;;20.78;50.46;100399.34;4440011;32;20415;-69
2021/12/12 02:37:54;;;;;;;2.20;0.90;;;;;;;20.46;51.18;100397.97;4435890;32;20021;-69
2021/12/12 02:40:24;;;;;;;2.50;0.85;;;;;;;20.79;50.40;100413.13;4438985;32;20034;-69
2021/12/12 02:42:51;;;;;;;1.50;0.77;;;;;;;20.82;50.35;100408.44;4438068;32;20073;-69
2021/12/12 02:45:19;;;;;;;3.40;1.08;;;;;;;20.63;50.61;100393.06;4435558;32;20150;-69
2021/12/12 02:47:53;;;;;;;1.60;0.80;;;;;;;20.89;50.31;100413.66;4439958;32;20037;-69
2021/12/12 02:50:24;;;;;;;2.55;1.00;;;;;;;20.91;50.30;100417.56;4435217;32;20065;-69
2021/12/12 02:53:04;;;;;;;2.80;0.70;;;;;;;21.04;49.90;100428.50;4439546;32;20037;-69
2021/12/12 02:55:34;;;;;;;2.08;1.00;;;;;;;20.95;49.74;100420.19;4437466;32;20090;-69
2021/12/12 02:58:01;;;;;;;1.48;0.60;;;;;;;20.95;49.88;100418.09;4438067;32;20069;-69
2021/12/12 03:00:32;;;;;;;1.58;0.82;;;;;;;21.17;49.72;100421.00;4437181;32;20043;-69
2021/12/12 03:03:00;;;;;;;1.08;0.60;;;;;;;21.24;49.17;100414.78;4436308;32;20226;-68
2021/12/12 03:05:31;;;;;;;3.10;0.80;;;;;;;21.14;49.77;100421.25;4435919;32;20069;-68
2021/12/12 03:07:58;;;;;;;1.10;0.70;;;;;;;21.40;49.05;100433.22;4435486;32;20141;-68
2021/12/12 03:10:29;;;;;;;0.70;0.60;;;;;;;21.02;49.94;100440.47;4434839;32;20414;-68
2021/12/12 03:12:55;;;;;;;2.15;1.15;;;;;;;21.32;49.36;100438.69;4436163;32;20541;-69
2021/12/12 03:15:27;;;;;;;1.62;0.80;;;;;;;21.13;49.72;100443.38;4427360;32;20471;-68
2021/12/12 03:17:57;;;;;;;2.72;0.70;;;;;;;21.41;49.06;100429.84;4426431;32;20077;-68
2021/12/12 03:20:27;;;;;;;4.00;0.60;;;;;;;21.37;49.15;100429.34;4423222;32;20117;-68
2021/12/12 03:22:58;;;;;;;2.75;0.80;;;;;;;21.33;49.46;100431.66;4427483;32;20097;-68
2021/12/12 03:25:25;;;;;;;5.93;0.90;;;;;;;21.36;49.36;100427.00;4420579;32;20069;-68
2021/12/12 03:27:52;;;;;;;2.00;0.70;;;;;;;21.39;49.23;100423.84;4424821;32;20037;-68
2021/12/12 03:30:19;;;;;;;0.90;0.77;;;;;;;21.22;49.58;100428.81;4427449;32;20083;-68
2021/12/12 03:32:45;;;;;;;1.02;0.50;;;;;;;21.09;50.03;100431.41;4426567;32;20042;-68
2021/12/12 03:35:11;;;;;;;0.55;0.40;;;;;;;21.04;50.02;100409.28;4425048;32;20333;-68
2021/12/12 03:37:41;;;;;;;3.90;0.40;;;;;;;20.95;50.33;100414.44;4422033;32;20462;-68
2021/12/12 03:40:17;;;;;;;0.65;0.45;;;;;;;21.26;49.53;100412.16;4424442;32;20033;-68
2021/12/12 03:42:46;;;;;;;1.02;0.57;;;;;;;21.39;49.08;100409.53;4421688;32;20096;-68
2021/12/12 03:45:13;;;;;;;0.98;0.40;;;;;;;21.13;49.35;100411.09;4426304;32;20070;-68
2021/12/12 03:47:43;;;;;;;0.50;0.30;;;;;;;20.89;50.13;100417.28;4424339;32;20052;-68
2021/12/12 03:50:18;;;;;;;0.43;0.40;;;;;;;21.00;50.07;100428.00;4425537;32;20025;-68
2021/12/12 03:52:45;;;;;;;0.62;0.45;;;;;;;21.09;49.53;100424.88;4424256;32;20022;-68
2021/12/12 03:55:12;;;;;;;0.30;0.30;;;;;;;20.95;49.83;100432.41;4424162;32;20482;-68
2021/12/12 03:57:39;;;;;;;0.30;0.30;;;;;;;21.07;49.72;100434.00;4422908;32;20072;-68
2021/12/12 04:00:18;;;;;;;0.77;0.43;;;;;;;20.82;49.98;100434.16;4423952;32;20041;-68
2021/12/12 04:02:44;;;;;;;1.08;0.62;;;;;;;21.11;49.76;100440.22;4423525;32;20098;-68
2021/12/12 04:05:10;;;;;;;0.93;0.40;;;;;;;20.94;49.62;100441.47;4428334;32;20538;-68
2021/12/12 04:07:36;;;;;;;0.30;0.30;;;;;;;21.17;49.42;100455.31;4425682;32;20089;-68
2021/12/12 04:10:04;;;;;;;2.37;0.60;;;;;;;21.13;48.89;100459.75;4424148;32;21165;-68
2021/12/12 04:12:30;;;;;;;3.33;0.52;;;;;;;21.51;48.69;100459.00;4422446;32;20041;-68
2021/12/12 04:14:56;;;;;;;1.40;1.00;;;;;;;21.53;48.31;100453.53;4425566;32;20096;-68
2021/12/12 04:17:27;;;;;;;0.95;0.62;;;;;;;21.66;48.03;100460.28;4427496;32;20124;-68
2021/12/12 04:19:55;;;;;;;2.55;0.70;;;;;;;21.70;47.98;100463.66;4425250;32;20030;-68
2021/12/12 04:22:21;;;;;;;1.05;0.73;;;;;;;21.81;47.54;100465.00;4421678;32;20074;-68
2021/12/12 04:24:49;;;;;;;1.98;0.50;;;;;;;21.77;47.40;100468.13;4424927;32;20061;-68
2021/12/12 04:27:16;;;;;;;3.28;1.00;;;;;;;22.08;47.48;100473.53;4427171;32;20034;-68
2021/12/12 04:29:46;;;;;;;1.12;0.68;;;;;;;22.09;47.42;100468.59;4420917;32;20160;-68
2021/12/12 04:32:17;;;;;;;2.53;0.88;;;;;;;22.10;47.53;100479.53;4425432;32;20379;-68
2021/12/12 04:34:48;;;;;;;1.35;1.10;;;;;;;22.20;47.15;100472.19;4427350;32;20510;-68
2021/12/12 04:37:15;;;;;;;5.07;1.05;;;;;;;22.12;47.47;100470.41;4426330;32;20046;-68
2021/12/12 04:39:46;;;;;;;1.25;0.80;;;;;;;21.96;47.49;100476.97;4423734;32;20017;-68
2021/12/12 04:42:17;;;;;;;2.72;1.30;;;;;;;22.05;47.50;100477.44;4422951;32;20108;-68
2021/12/12 04:44:47;;;;;;;1.27;1.17;;;;;;;22.08;47.24;100475.59;4424802;32;20049;-68
2021/12/12 04:49:55;;;;;;;1.77;1.40;;;;;;;22.43;46.75;100493.75;3980987;32;15029731;-68
2021/12/12 04:52:28;;;;;;;3.08;1.27;;;;;;;22.43;46.75;100493.75;4431150;32;20484;-68
2021/12/12 04:55:05;;;;;;;1.80;1.30;;;;;;;22.13;47.00;100487.09;4430256;32;20405;-68
2021/12/12 04:57:44;;;;;;;6.45;1.40;;;;;;;22.12;46.90;100481.88;4434254;32;20041;-68
2021/12/12 05:00:16;;;;;;;3.05;1.85;;;;;;;22.08;46.34;100487.87;4433668;32;20069;-68
2021/12/12 05:05:26;;;;;;;4.55;2.12;;;;;;;22.35;46.30;100497.69;3955338;32;15722563;-68
2021/12/12 05:10:39;;;;;;;9.27;2.10;;;;;;;22.22;45.91;100506.88;3988402;31;15020418;-68
2021/12/12 05:13:17;;;;;;;4.00;2.12;;;;;;;22.22;45.91;100506.88;4440309;32;20121;-69
2021/12/12 05:15:48;;;;;;;7.43;2.17;;;;;;;21.67;46.50;100496.19;4439213;32;20044;-69
2021/12/12 05:18:22;;;;;;;4.20;2.15;;;;;;;21.72;47.09;100503.22;4438328;32;20034;-68
2021/12/12 05:20:54;;;;;;;7.05;3.05;;;;;;;21.69;46.71;100498.56;4438491;32;20563;-69
2021/12/12 05:23:25;;;;;;;5.40;1.98;;;;;;;21.59;46.75;100505.84;4439887;32;20040;-68
2021/12/12 05:26:12;;;;;;;4.68;2.75;;;;;;;21.59;47.08;100512.38;4439101;32;20076;-68
2021/12/12 05:28:48;;;;;;;4.03;2.60;;;;;;;21.64;46.97;100519.41;4439819;32;20077;-68
2021/12/12 05:31:14;;;;;;;4.68;1.80;;;;;;;21.67;47.14;100516.25;4440011;32;20087;-68
2021/12/12 05:33:40;;;;;;;10.95;3.12;;;;;;;21.36;47.83;100516.50;4425068;32;20441;-68
2021/12/12 05:36:09;;;;;;;4.43;1.40;;;;;;;21.39;47.78;100515.47;4425102;32;20152;-68
2021/12/12 05:38:35;;;;;;;9.48;2.72;;;;;;;21.55;47.76;100514.72;4439251;32;20122;-68
2021/12/12 05:41:02;;;;;;;2.50;1.20;;;;;;;21.43;47.48;100513.16;4437230;32;20700;-68
2021/12/12 05:43:29;;;;;;;4.68;1.65;;;;;;;21.50;47.67;100518.34;4438615;32;20072;-68
2021/12/12 05:45:55;;;;;;;4.30;1.60;;;;;;;21.59;46.88;100517.31;4439857;32;20123;-68
2021/12/12 05:48:22;;;;;;;6.82;1.67;;;;;;;21.59;46.81;100520.16;4437736;32;20034;-68
2021/12/12 05:50:50;;;;;;;3.42;1.52;;;;;;;21.59;46.78;100520.16;4437691;32;20052;-68
2021/12/12 05:53:15;;;;;;;2.65;1.42;;;;;;;21.79;46.26;100516.28;4439833;32;20084;-68
2021/12/12 05:55:42;;;;;;;3.17;1.37;;;;;;;21.60;46.29;100533.97;4439028;32;20033;-68
2021/12/12 05:58:13;;;;;;;4.18;1.77;;;;;;;21.56;46.58;100516.28;4438107;32;20085;-68
2021/12/12 06:00:47;;;;;;;4.82;1.52;;;;;;;21.52;46.22;100514.97;4437077;32;20042;-68
2021/12/12 06:03:16;;;;;;;3.08;1.45;;;;;;;21.47;46.02;100512.88;4424190;32;20075;-68
2021/12/12 06:05:42;;;;;;;4.50;1.70;;;;;;;21.26;46.77;100515.19;4437603;32;20502;-68
2021/12/12 06:08:08;;;;;;;4.07;1.70;;;;;;;21.02;46.91;100517.72;4437720;32;20098;-68
2021/12/12 06:10:37;;;;;;;1.35;1.25;;;;;;;21.06;46.78;100526.06;4438686;32;20078;-68
2021/12/12 06:13:05;;;;;;;5.35;2.22;;;;;;;21.10;46.81;100520.88;4438298;32;20072;-68
2021/12/12 06:15:32;;;;;;;4.25;2.20;;;;;;;20.96;46.94;100525.50;4438328;32;20063;-68
2021/12/12 06:17:59;;;;;;;5.55;2.30;;;;;;;20.99;47.17;100527.34;4435656;32;20579;-68
2021/12/12 06:20:27;;;;;;;4.20;2.05;;;;;;;20.90;47.23;100527.53;4432297;32;20105;-68
2021/12/12 06:22:54;;;;;;;4.85;2.30;;;;;;;21.02;46.86;100534.12;4427889;32;20029;-68
2021/12/12 06:25:21;;;;;;;3.90;2.65;;;;;;;20.85;47.10;100530.38;4430586;32;20382;-68
2021/12/12 06:27:46;;;;;;;5.93;2.97;;;;;;;20.76;47.04;100530.62;4411558;32;20049;-68
2021/12/12 06:30:16;;;;;;;5.60;3.58;;;;;;;20.54;47.54;100530.50;4425996;32;20077;-68
2021/12/12 06:32:45;;;;;;;9.30;4.30;;;;;;;20.76;47.67;100545.72;4429581;32;20054;-68
2021/12/12 06:35:11;;;;;;;10.18;5.00;;;;;;;20.83;47.28;100550.94;4430018;32;20393;-68
2021/12/12 06:37:37;;;;;;;10.82;4.87;;;;;;;20.64;47.73;100552.66;4428325;32;20065;-68
2021/12/12 06:40:06;;;;;;;17.30;5.90;;;;;;;20.60;47.39;100552.13;4424992;32;20042;-68
2021/12/12 06:42:32;;;;;;;13.85;6.97;;;;;;;20.87;47.11;100571.50;4429480;32;20069;-68
2021/12/12 06:44:58;;;;;;;11.30;4.87;;;;;;;20.66;47.60;100564.38;4428225;32;20413;-68
2021/12/12 06:47:25;;;;;;;10.55;5.37;;;;;;;20.60;47.17;100563.56;4426754;32;20074;-68
2021/12/12 06:49:51;;;;;;;14.93;8.18;;;;;;;20.53;47.39;100572.63;4421759;32;20064;-68
2021/12/12 06:52:19;;;;;;;17.52;7.68;;;;;;;20.74;47.46;100573.25;4428525;32;20042;-68
2021/12/12 06:54:47;;;;;;;14.43;6.47;;;;;;;21.06;47.17;100572.66;4413738;32;20046;-68
2021/12/12 06:57:16;;;;;;;15.20;6.50;;;;;;;21.03;47.37;100567.94;4425841;32;20382;-68
2021/12/12 06:59:43;;;;;;;10.15;4.18;;;;;;;21.17;46.93;100569.03;4425463;32;20025;-68
2021/12/12 07:02:10;;;;;;;6.82;3.30;;;;;;;21.21;46.97;100570.34;4423401;32;20129;-68
2021/12/12 07:04:38;;;;;;;6.00;2.40;;;;;;;21.15;47.39;100565.91;4425739;32;20368;-68
2021/12/12 07:07:07;;;;;;;5.20;2.20;;;;;;;21.26;47.07;100568.81;4426045;32;20068;-68
2021/12/12 07:09:35;;;;;;;4.78;1.95;;;;;;;21.19;47.14;100566.41;4423511;32;20862;-68
2021/12/12 07:12:05;;;;;;;3.40;1.98;;;;;;;21.26;47.08;100563.09;4426471;32;21066;-68
2021/12/12 07:14:33;;;;;;;2.17;1.40;;;;;;;21.49;46.64;100568.34;4427185;32;20142;-68
2021/12/12 07:16:59;;;;;;;2.35;1.23;;;;;;;21.23;47.37;100579.19;4429280;32;20396;-68
2021/12/12 07:19:27;;;;;;;1.10;0.77;;;;;;;21.14;47.81;100578.66;4424785;32;20144;-67
2021/12/12 07:21:53;;;;;;;3.25;0.82;;;;;;;21.21;47.38;100573.22;4426043;32;20747;-68
2021/12/12 07:24:21;;;;;;;1.17;0.68;;;;;;;21.30;47.45;100569.31;4431016;32;20748;-68
2021/12/12 07:26:47;;;;;;;2.60;1.30;;;;;;;21.53;47.01;100582.38;4425517;32;20083;-68
2021/12/12 07:29:13;;;;;;;3.47;1.50;;;;;;;21.37;47.30;100583.91;4424612;32;20034;-68
2021/12/12 07:31:40;;;;;;;6.93;1.62;;;;;;;21.58;46.77;100587.34;4426138;32;20133;-68
2021/12/12 07:34:10;;;;;;;9.55;2.00;;;;;;;21.66;46.72;100588.38;4426109;32;20106;-68
2021/12/12 07:36:40;;;;;;;4.68;1.85;;;;;;;21.63;46.35;100592.31;4426050;32;20575;-68
2021/12/12 07:39:10;;;;;;;4.68;1.90;;;;;;;21.64;46.73;100593.84;4423143;32;20088;-68
2021/12/12 07:41:37;;;;;;;6.97;1.80;;;;;;;21.53;46.71;100590.97;4426209;32;20175;-68
2021/12/12 07:44:06;;;;;;;4.37;2.55;;;;;;;21.40;47.21;100590.69;4412905;32;20073;-68
2021/12/12 07:46:33;;;;;;;3.92;2.03;;;;;;;21.64;46.84;100591.00;4427121;32;20095;-68
2021/12/12 07:48:59;;;;;;;3.12;1.87;;;;;;;21.46;46.84;100577.97;4423790;32;20119;-68
2021/12/12 07:51:26;;;;;;;2.70;1.70;;;;;;;21.32;47.16;100584.69;4425575;32;20073;-68
2021/12/12 07:53:57;;;;;;;1.27;0.90;;;;;;;21.23;47.90;100576.31;4425421;32;20081;-68
2021/12/12 07:56:27;;;;;;;3.05;0.90;;;;;;;21.18;48.35;100579.97;4427162;32;20212;-67
2021/12/12 07:58:54;;;;;;;1.98;1.05;;;;;;;21.09;49.01;100580.19;4412316;32;20459;-67
2021/12/12 08:01:20;;;;;;;1.17;1.00;;;;;;;21.19;48.41;100583.59;4425092;32;20104;-67
2021/12/12 08:03:46;;;;;;;1.55;1.00;;;;;;;21.10;49.15;100590.34;4422335;32;20092;-67
2021/12/12 08:06:15;;;;;;;1.60;1.05;;;;;;;21.29;48.93;100593.50;4427473;32;20077;-67
2021/12/12 08:08:42;;;;;;;1.65;0.90;;;;;;;21.33;48.77;100591.97;4424021;32;20130;-67
2021/12/12 08:11:09;;;;;;;1.33;1.00;;;;;;;21.37;48.88;100588.84;4424401;32;20148;-67
2021/12/12 08:13:35;;;;;;;1.40;0.90;;;;;;;21.64;48.27;100599.59;4427136;32;20021;-67
2021/12/12 08:16:04;;;;;;;1.98;1.30;;;;;;;21.50;48.48;100607.13;4426576;32;20046;-67
2021/12/12 08:18:32;;;;;;;3.03;1.08;;;;;;;21.42;48.56;100608.12;4424918;32;20141;-67
2021/12/12 08:20:59;;;;;;;1.92;1.20;;;;;;;21.70;47.97;100609.75;4426980;32;20063;-67
2021/12/12 08:23:26;;;;;;;0.90;0.57;;;;;;;21.94;47.42;100615.03;4426949;32;20095;-67
2021/12/12 08:25:54;;;;;;;1.35;0.73;;;;;;;21.56;48.51;100622.22;4424600;32;20419;-67
2021/12/12 08:28:21;;;;;;;2.00;0.82;;;;;;;21.78;48.10;100612.12;4425179;32;20156;-67
2021/12/12 08:30:49;;;;;;;1.05;0.57;;;;;;;21.82;48.16;100610.59;4424310;32;20077;-67
2021/12/12 08:33:15;;;;;;;1.25;0.57;;;;;;;21.84;48.05;100615.78;4426139;32;20123;-67
2021/12/12 08:35:42;;;;;;;1.33;0.90;;;;;;;21.84;47.88;100621.53;4423318;32;20084;-67
2021/12/12 08:38:10;;;;;;;1.35;0.70;;;;;;;22.00;47.55;100615.03;4425980;32;20490;-67
2021/12/12 08:40:43;;;;;;;0.90;0.60;;;;;;;21.91;47.54;100609.53;4424369;32;20080;-67
2021/12/12 08:43:13;;;;;;;0.93;0.70;;;;;;;22.33;46.71;100630.13;4425550;32;20098;-67
2021/12/12 08:45:45;;;;;;;1.75;1.10;;;;;;;22.03;47.48;100631.16;4425912;32;20774;-67
2021/12/12 08:48:14;;;;;;;3.35;1.10;;;;;;;22.41;46.68;100639.75;4426076;32;20065;-67
2021/12/12 08:50:41;;;;;;;1.80;0.82;;;;;;;22.16;47.23;100632.22;4421268;32;20093;-67
2021/12/12 08:53:08;;;;;;;4.10;0.73;;;;;;;21.96;47.76;100634.56;4426611;32;20097;-67
2021/12/12 08:55:38;;;;;;;2.53;1.00;;;;;;;21.85;47.83;100638.19;4425277;32;20038;-67
2021/12/12 08:58:17;;;;;;;1.48;0.70;;;;;;;21.53;48.93;100637.56;4424635;32;20132;-67
2021/12/12 09:03:32;;;;;;;1.40;0.85;;;;;;;21.44;49.09;100639.88;3976844;32;15175416;-68
2021/12/12 09:05:59;;;;;;;2.75;0.93;;;;;;;20.85;50.78;100653.38;4432317;32;20092;-68
2021/12/12 09:14:10;;;;;;;1.30;0.70;;;;;;;21.16;50.24;100671.28;4003431;31;15018998;-68
2021/12/12 09:19:16;;;;;;;3.47;0.95;;;;;;;21.47;49.46;100674.00;3972748;31;15709797;-67
2021/12/12 09:21:53;;;;;;;1.10;0.68;;;;;;;21.30;50.20;100683.84;4448193;32;20099;-67
2021/12/12 09:27:03;;;;;;;0.68;0.60;;;;;;;21.82;49.68;100679.34;3964650;32;15024831;-68
2021/12/12 09:29:35;;;;;;;1.95;0.60;;;;;;;21.82;49.68;100679.34;4417846;32;20100;-68
2021/12/12 09:32:09;;;;;;;1.42;0.90;;;;;;;21.54;49.88;100687.81;4416594;32;20097;-68
2021/12/12 09:34:48;;;;;;;0.62;0.60;;;;;;;21.73;49.44;100696.72;4416100;32;20052;-68
2021/12/12 09:37:22;;;;;;;0.80;0.50;;;;;;;21.79;49.04;100688.19;4416459;32;20085;-68
2021/12/12 09:39:57;;;;;;;0.73;0.43;;;;;;;21.59;49.58;100695.66;4414092;32;20102;-68
2021/12/12 09:42:42;;;;;;;3.03;0.47;;;;;;;21.84;49.32;100698.88;4415811;32;20092;-68
2021/12/12 09:51:14;;;;;;;1.35;0.60;;;;;;;22.45;47.87;100705.44;3982281;32;15054026;-68
2021/12/12 09:51:41;;;;;;;1.58;0.60;;;;;;;22.45;47.87;100705.44;4433581;32;20381;-68
2021/12/12 10:03:07;;;;;;;1.05;0.60;;;;;;;23.06;46.56;100714.78;3994731;31;15019694;-68
2021/12/12 10:08:33;;;;;;;2.15;0.40;;;;;;;22.68;46.75;100712.78;3996826;31;15016076;-68
2021/12/12 10:11:07;;;;;;;1.05;0.40;;;;;;;22.78;46.85;100708.31;4453248;32;20076;-69
2021/12/12 10:16:49;;;;;;;2.92;0.70;;;;;;;23.39;45.80;100721.25;3976463;31;15706266;-68
2021/12/12 10:19:52;;;;;;;0.47;0.30;;;;;;;23.38;45.62;100725.41;4464610;32;20438;-68
2021/12/12 10:22:57;;;;;;;1.58;0.70;;;;;;;23.14;45.69;100719.44;4463195;32;20081;-68
2021/12/12 10:25:31;;;;;;;3.60;0.50;;;;;;;23.54;44.92;100723.78;4462920;32;20203;-68
2021/12/12 10:28:06;;;;;;;0.60;0.22;;;;;;;23.35;45.56;100720.72;4464905;32;20033;-68
2021/12/12 10:30:39;;;;;;;4.37;0.60;;;;;;;23.52;45.23;100729.28;4462294;32;20092;-68
2021/12/12 10:36:00;;;;;;;3.83;0.70;;;;;;;24.38;43.83;100731.41;3995901;31;15015681;-68
2021/12/12 10:52:22;;;;;;;1.50;0.30;;;;;;;24.18;44.18;100734.72;3976321;32;15214801;-69
2021/12/12 10:54:55;;;;;;;2.45;0.30;;;;;;;24.18;44.18;100734.72;4434722;32;20199;-69
2021/12/12 10:57:25;;;;;;;1.45;0.50;;;;;;;23.95;44.27;100733.28;4431080;32;20279;-69
2021/12/12 10:59:57;;;;;;;0.75;0.20;;;;;;;23.89;44.12;100731.69;4431559;32;20092;-69
2021/12/12 11:02:30;;;;;;;0.73;0.40;;;;;;;24.21;43.07;100736.47;4429639;32;20367;-68
2021/12/12 11:05:08;;;;;;;1.75;0.98;;;;;;;24.31;43.30;100734.88;4432793;32;20056;-68
2021/12/12 11:07:39;;;;;;;2.17;0.47;;;;;;;24.27;43.21;100737.22;4432341;32;20064;-69
2021/12/12 11:10:12;;;;;;;2.62;0.50;;;;;;;24.08;43.35;100732.69;4434483;32;20057;-68
2021/12/12 11:12:51;;;;;;;2.47;0.50;;;;;;;24.34;42.89;100739.56;4432818;32;20195;-69
2021/12/12 11:15:34;;;;;;;0.43;0.25;;;;;;;24.38;42.61;100734.28;4435475;32;20055;-69
2021/12/12 11:23:27;;;;;;;2.00;0.70;;;;;;;25.28;41.29;100756.75;3981431;32;15021378;-68
2021/12/12 11:26:07;;;;;;;1.98;0.22;;;;;;;25.28;41.29;100756.75;4431248;32;20033;-69
2021/12/12 11:28:39;;;;;;;2.25;0.30;;;;;;;24.85;41.64;100750.13;4435337;32;20557;-69
2021/12/12 11:33:51;;;;;;;4.55;2.03;;;;;;;25.55;40.76;100762.78;3982416;32;15023870;-69
2021/12/12 11:36:24;;;;;;;2.87;0.70;;;;;;;25.55;40.76;100762.78;4438807;32;20081;-69
2021/12/12 11:39:01;;;;;;;0.80;0.22;;;;;;;24.72;41.44;100749.19;4436277;32;20387;-69
2021/12/12 11:41:54;;;;;;;2.10;0.50;;;;;;;24.69;41.42;100756.81;4436149;32;20118;-69
2021/12/12 11:52:19;;;;;;;0.75;0.30;;;;;;;25.01;40.84;100742.66;3969701;32;15021805;-69
2021/12/12 11:55:00;;;;;;;1.02;0.40;;;;;;;25.01;40.84;100742.66;4422974;32;20073;-69
2021/12/12 11:57:32;;;;;;;1.50;0.62;;;;;;;24.90;40.80;100740.66;4422068;32;20460;-69
2021/12/12 12:05:42;;;;;;;1.52;0.30;;;;;;;25.55;39.95;100742.59;3982735;32;15022332;-69
2021/12/12 12:08:31;;;;;;;1.17;0.50;;;;;;;25.55;39.95;100742.59;4434360;32;20124;-69
2021/12/12 12:14:02;;;;;;;1.25;0.60;;;;;;;25.17;40.75;100736.72;3998452;31;15017223;-69
2021/12/12 12:16:52;;;;;;;0.95;0.40;;;;;;;25.17;40.75;100736.72;4461492;32;20130;-69
2021/12/12 12:19:58;;;;;;;1.87;0.55;;;;;;;24.96;40.37;100729.88;4461535;32;20095;-69
2021/12/12 12:26:50;;;;;;;2.53;0.88;;;;;;;26.23;38.04;100725.41;3990973;32;15022679;-69
2021/12/12 12:28:27;;;;;;;2.12;0.62;;;;;;;26.23;38.04;100725.41;4445502;32;20487;-69
2021/12/12 12:36:47;;;;;;;1.87;0.90;;;;;;;28.17;34.70;100729.06;3969151;32;15028364;-68
2021/12/12 12:39:52;;;;;;;0.82;0.57;;;;;;;28.17;34.70;100729.06;4413557;32;20054;-69
2021/12/12 12:42:58;;;;;;;4.60;1.02;;;;;;;27.86;34.57;100730.03;4417930;32;20379;-69
2021/12/12 12:46:03;;;;;;;1.60;0.50;;;;;;;27.72;34.98;100725.56;4416764;32;20108;-69
2021/12/12 12:49:09;;;;;;;1.23;0.73;;;;;;;28.13;33.93;100725.72;4419146;32;20447;-69
2021/12/12 12:54:37;;;;;;;1.30;0.50;;;;;;;27.10;35.76;100718.69;3991532;32;15024621;-69
2021/12/12 12:57:16;;;;;;;1.75;0.60;;;;;;;27.10;35.76;100718.69;4446762;32;20085;-69
2021/12/12 13:00:18;;;;;;;4.55;0.60;;;;;;;27.24;35.47;100720.25;4434241;32;20060;-69
2021/12/12 13:03:23;;;;;;;1.00;0.50;;;;;;;27.24;35.40;100723.16;4447262;32;20064;-69
2021/12/12 13:11:52;;;;;;;1.65;0.60;;;;;;;25.15;39.33;100741.44;3983139;32;15024520;-69
2021/12/12 13:17:19;;;;;;;2.90;1.00;;;;;;;25.72;38.36;100731.63;3983669;32;15020884;-68
2021/12/12 13:20:10;;;;;;;2.15;0.80;;;;;;;25.72;38.36;100731.63;4433377;32;20041;-69
2021/12/12 13:22:48;;;;;;;4.03;1.40;;;;;;;26.27;36.96;100725.88;4438989;32;20040;-69
2021/12/12 13:28:10;;;;;;;1.58;0.57;;;;;;;27.13;35.57;100723.34;3982954;32;15023252;-69
2021/12/12 13:33:23;;;;;;;0.70;0.45;;;;;;;27.89;34.32;100731.78;3952853;31;15708234;-69
2021/12/12 13:47:03;;;;;;;1.33;0.68;;;;;;;29.00;31.78;100724.84;3984042;32;15023364;-69
2021/12/12 13:49:44;;;;;;;2.17;0.55;;;;;;;29.00;31.78;100724.84;4441740;32;20513;-69
2021/12/12 13:52:25;;;;;;;2.47;0.65;;;;;;;28.64;31.90;100728.97;4444456;32;20550;-69
2021/12/12 13:55:18;;;;;;;1.77;0.52;;;;;;;27.59;33.71;100721.91;4444900;32;20203;-69
2021/12/12 14:03:21;;;;;;;2.72;0.65;;;;;;;25.09;38.82;100704.06;3954122;32;15722576;-70
2021/12/12 14:05:51;;;;;;;1.58;0.60;;;;;;;25.09;38.82;100704.06;4429285;32;20778;-70
2021/12/12 14:10:57;;;;;;;2.95;0.93;;;;;;;24.25;40.64;100699.62;3945763;32;15724381;-69
2021/12/12 14:13:29;;;;;;;8.77;0.68;;;;;;;24.32;40.48;100696.16;4426067;32;20077;-70